Time;durP1;ratioP1;P1;durP2;ratioP2;P2;SDS_P1;SDS_P2;PMS_P1;PMS_P2;Temp;Humidity;BMP_temperature;BMP_pressure;BME280_temperature;BME280_humidity;BME280_pressure;Samples;Min_cycle;Max_cycle;Signal;HPM_P1;HPM_P2
2023/12/13 00:01:35;;;;;;;;;;;;;;;17.33;43.86;100764.09;4984353;28;1000;-55
2023/12/13 00:04:00;;;;;;;;;;;;;;;18.21;42.63;100752.75;4997239;28;1082;-54
2023/12/13 00:06:26;;;;;;;;;;;;;;;17.65;43.35;100762.91;4996902;28;1898;-54
2023/12/13 00:08:51;;;;;;;;;;;;;;;17.21;43.94;100758.13;4996690;28;1102;-54
2023/12/13 00:11:17;;;;;;;;;;;;;;;18.24;42.52;100758.53;4982266;28;2203;-54
2023/12/13 00:13:42;;;;;;;;;;;;;;;17.28;44.14;100750.41;4984394;28;1152;-52
2023/12/13 00:16:08;;;;;;;;;;;;;;;17.28;44.30;100753.16;4983263;28;1204;-54
2023/12/13 00:18:34;;;;;;;;;;;;;;;18.05;42.71;100754.78;4984583;28;1115;-52
2023/12/13 00:21:00;;;;;;;;;;;;;;;17.25;44.04;100753.69;4983161;28;1064;-49
2023/12/13 00:23:25;;;;;;;;;;;;;;;17.22;44.31;100748.75;4989496;28;1191;-51
2023/12/13 00:25:51;;;;;;;;;;;;;;;18.17;42.46;100746.97;4996553;28;1976;-53
2023/12/13 00:28:16;;;;;;;;;;;;;;;17.20;44.14;100746.28;4984379;28;1136;-52
2023/12/13 00:30:42;;;;;;;;;;;;;;;17.74;43.67;100744.72;4990318;28;1067;-51
2023/12/13 00:33:07;;;;;;;;;;;;;;;17.49;43.71;100742.91;4989400;28;994;-49
2023/12/13 00:35:33;;;;;;;;;;;;;;;17.28;44.39;100748.47;4977683;28;1055;-49
2023/12/13 00:37:58;;;;;;;;;;;;;;;18.61;41.28;100739.81;4989521;28;1157;-49
2023/12/13 00:40:24;;;;;;;;;;;;;;;17.43;43.68;100736.59;4990817;28;1988;-48
2023/12/13 00:42:49;;;;;;;;;;;;;;;16.90;44.50;100738.91;4983620;28;1055;-49
2023/12/13 00:45:15;;;;;;;;;;;;;;;18.03;42.56;100744.03;4982539;28;1968;-52
2023/12/13 00:47:41;;;;;;;;;;;;;;;17.13;44.28;100732.00;4989542;28;1032;-53
2023/12/13 00:50:07;;;;;;;;;;;;;;;17.61;43.71;100742.56;4995992;28;1102;-52
2023/12/13 00:52:32;;;;;;;;;;;;;;;17.40;43.90;100728.09;4996378;28;1063;-53
2023/12/13 00:55:00;;;;;;;;;;;;;;;17.43;43.89;100727.53;4977662;28;1060;-54
2023/12/13 00:57:26;;;;;;;;;;;;;;;18.61;41.16;100721.34;4989197;28;1115;-53
2023/12/13 00:59:52;;;;;;;;;;;;;;;17.42;43.69;100715.72;4978916;28;1082;-51
2023/12/13 01:02:17;;;;;;;;;;;;;;;17.14;44.20;100722.69;4993438;28;1110;-47
2023/12/13 01:04:44;;;;;;;;;;;;;;;17.75;43.24;100713.38;4994605;28;1910;-51
2023/12/13 01:07:10;;;;;;;;;;;;;;;17.04;44.68;100709.78;4981009;28;1013;-49
2023/12/13 01:09:36;;;;;;;;;;;;;;;18.73;41.17;100709.13;4993289;28;1756;-49
2023/12/13 01:12:02;;;;;;;;;;;;;;;17.60;43.51;100699.72;4993083;28;1080;-50
2023/12/13 01:14:28;;;;;;;;;;;;;;;17.09;44.10;100703.44;4999429;28;1015;-46
2023/12/13 01:16:53;;;;;;;;;;;;;;;16.93;44.27;100703.50;4999897;28;1134;-48
2023/12/13 01:19:18;;;;;;;;;;;;;;;18.39;41.72;100694.25;4982037;28;1140;-49
2023/12/13 01:21:44;;;;;;;;;;;;;;;17.27;44.20;100696.53;4992410;28;1199;-51
2023/12/13 01:24:09;;;;;;;;;;;;;;;18.84;41.06;100693.31;4992194;28;1092;-50
2023/12/13 01:26:35;;;;;;;;;;;;;;;18.26;41.86;100697.69;4992433;28;1887;-51
2023/12/13 01:29:01;;;;;;;;;;;;;;;17.50;43.29;100699.72;4986814;28;1076;-50
2023/12/13 01:31:26;;;;;;;;;;;;;;;17.67;43.48;100691.97;4987609;28;1108;-50
2023/12/13 01:33:52;;;;;;;;;;;;;;;17.80;42.99;100690.53;4993455;28;1065;-50
2023/12/13 01:36:17;;;;;;;;;;;;;;;17.15;44.02;100683.09;4984167;28;1048;-50
2023/12/13 01:38:43;;;;;;;;;;;;;;;18.68;41.21;100676.09;4998542;28;1102;-49
2023/12/13 01:41:08;;;;;;;;;;;;;;;17.45;43.80;100679.41;4981728;28;2681;-52
2023/12/13 01:43:34;;;;;;;;;;;;;;;17.10;43.85;100672.94;4993130;28;1123;-51
2023/12/13 01:45:59;;;;;;;;;;;;;;;18.43;41.93;100676.06;4980159;28;1980;-49
2023/12/13 01:48:26;;;;;;;;;;;;;;;17.45;43.66;100660.16;4998011;28;1052;-51
2023/12/13 01:50:51;;;;;;;;;;;;;;;17.22;44.09;100661.66;4997951;28;1040;-51
2023/12/13 01:53:17;;;;;;;;;;;;;;;18.01;42.50;100660.16;4986763;28;1071;-48
2023/12/13 01:55:42;;;;;;;;;;;;;;;17.35;44.28;100668.47;4999287;28;1083;-50
2023/12/13 01:58:08;;;;;;;;;;;;;;;18.99;40.55;100660.13;4998098;28;1044;-52
2023/12/13 02:00:33;;;;;;;;;;;;;;;17.84;42.80;100666.00;4989641;28;1035;-51
2023/12/13 02:02:59;;;;;;;;;;;;;;;17.32;43.60;100654.47;4996324;28;1029;-50
2023/12/13 02:05:26;;;;;;;;;;;;;;;17.02;44.05;100657.03;4999106;28;1905;-52
2023/12/13 02:07:51;;;;;;;;;;;;;;;18.20;42.21;100654.78;4986474;28;1144;-52
2023/12/13 02:10:17;;;;;;;;;;;;;;;17.14;44.19;100650.41;4987624;28;1779;-48
2023/12/13 02:12:42;;;;;;;;;;;;;;;17.62;43.69;100659.81;4987894;28;1009;-50
2023/12/13 02:15:08;;;;;;;;;;;;;;;17.43;43.62;100640.41;4998249;28;1035;-51
2023/12/13 02:17:34;;;;;;;;;;;;;;;16.97;44.31;100642.50;4998979;28;1056;-50
2023/12/13 02:19:59;;;;;;;;;;;;;;;17.59;43.54;100638.38;4999302;28;1047;-49
2023/12/13 02:22:25;;;;;;;;;;;;;;;17.74;43.18;100628.38;4994451;28;1120;-50
2023/12/13 02:24:50;;;;;;;;;;;;;;;17.75;43.35;100633.63;4981345;28;1902;-52
2023/12/13 02:27:16;;;;;;;;;;;;;;;19.16;40.14;100623.81;4982720;28;1049;-50
2023/12/13 02:29:41;;;;;;;;;;;;;;;17.77;42.98;100623.16;4987244;28;1132;-51
2023/12/13 02:32:07;;;;;;;;;;;;;;;17.26;43.71;100628.94;4992234;28;1033;-52
2023/12/13 02:34:32;;;;;;;;;;;;;;;18.12;42.44;100646.03;4990182;28;1054;-51
2023/12/13 02:36:58;;;;;;;;;;;;;;;17.47;43.58;100646.13;4985893;28;1187;-52
2023/12/13 02:39:23;;;;;;;;;;;;;;;17.03;43.69;100647.69;4979235;28;2492;-52
2023/12/13 02:41:49;;;;;;;;;;;;;;;18.23;42.31;100646.78;4982989;28;1009;-50
2023/12/13 02:44:14;;;;;;;;;;;;;;;17.09;44.20;100638.31;4986459;28;1176;-50
2023/12/13 02:46:40;;;;;;;;;;;;;;;18.59;41.34;100642.88;4982275;28;1906;-52
2023/12/13 02:49:06;;;;;;;;;;;;;;;18.11;42.42;100646.31;4987584;28;988;-51
2023/12/13 02:51:31;;;;;;;;;;;;;;;17.35;43.72;100640.16;4995016;28;1164;-49
2023/12/13 02:53:57;;;;;;;;;;;;;;;18.22;42.25;100644.31;4997397;28;1060;-49
2023/12/13 02:56:22;;;;;;;;;;;;;;;17.51;43.59;100647.22;4997019;28;1019;-50
2023/12/13 02:58:48;;;;;;;;;;;;;;;17.12;43.98;100666.34;4997403;28;1008;-50
2023/12/13 03:01:13;;;;;;;;;;;;;;;16.85;44.03;100665.56;4985935;28;1196;-52
2023/12/13 03:03:39;;;;;;;;;;;;;;;18.44;41.83;100669.44;4988833;28;1068;-48
2023/12/13 03:06:04;;;;;;;;;;;;;;;17.22;44.10;100663.56;4992673;28;1910;-51
2023/12/13 03:08:30;;;;;;;;;;;;;;;17.05;44.38;100667.47;5003513;28;1001;-50
2023/12/13 03:10:56;;;;;;;;;;;;;;;18.05;42.56;100677.75;4979429;28;1826;-49
2023/12/13 03:13:21;;;;;;;;;;;;;;;17.40;43.89;100673.97;4977896;28;1072;-51
2023/12/13 03:15:47;;;;;;;;;;;;;;;19.01;40.53;100671.66;4990426;28;1140;-49
2023/12/13 03:18:12;;;;;;;;;;;;;;;18.11;42.22;100665.59;4977714;28;1068;-49
2023/12/13 03:20:38;;;;;;;;;;;;;;;17.41;43.57;100672.81;4981256;28;1068;-52
2023/12/13 03:23:07;;;;;;;;;;;;;;;17.20;43.69;100669.34;4996118;28;1056;-50
2023/12/13 03:25:33;;;;;;;;;;;;;;;17.93;42.93;100672.59;4990165;28;1914;-52
2023/12/13 03:27:58;;;;;;;;;;;;;;;17.11;44.19;100671.03;4997021;28;1039;-49
2023/12/13 03:30:23;;;;;;;;;;;;;;;17.90;43.09;100681.38;4979589;28;1075;-48
2023/12/13 03:32:49;;;;;;;;;;;;;;;17.56;43.34;100671.13;4987525;28;1101;-52
2023/12/13 03:35:14;;;;;;;;;;;;;;;18.39;42.05;100680.50;4979441;28;1238;-51
2023/12/13 03:37:40;;;;;;;;;;;;;;;18.95;40.29;100676.41;4978318;28;893;-49
2023/12/13 03:40:06;;;;;;;;;;;;;;;17.69;43.03;100670.50;4977028;28;2623;-54
2023/12/13 03:42:31;;;;;;;;;;;;;;;17.28;43.68;100670.69;4933719;28;1265609;-51
2023/12/13 03:44:57;;;;;;;;;;;;;;;18.06;42.79;100668.38;4994534;28;1985;-52
2023/12/13 03:47:22;;;;;;;;;;;;;;;17.41;43.74;100663.78;4987423;28;1198;-50
2023/12/13 03:49:48;;;;;;;;;;;;;;;18.16;42.41;100661.97;4989428;28;1041;-48
2023/12/13 03:52:14;;;;;;;;;;;;;;;18.62;41.13;100669.81;4997657;28;995;-50
2023/12/13 03:54:39;;;;;;;;;;;;;;;17.52;43.30;100667.31;4996774;28;1079;-46
2023/12/13 03:57:05;;;;;;;;;;;;;;;18.17;42.32;100669.94;4987521;28;1105;-49
2023/12/13 03:59:30;;;;;;;;;;;;;;;17.88;42.65;100672.56;4982080;28;1005;-49
2023/12/13 04:01:56;;;;;;;;;;;;;;;17.29;43.66;100672.31;4995428;28;869;-50
2023/12/13 04:04:21;;;;;;;;;;;;;;;17.01;43.46;100671.91;4984073;28;1091;-50
2023/12/13 04:06:47;;;;;;;;;;;;;;;17.09;43.86;100671.28;4996534;28;1909;-47
2023/12/13 04:09:12;;;;;;;;;;;;;;;17.79;43.08;100673.19;4982501;28;2364;-48
2023/12/13 04:11:38;;;;;;;;;;;;;;;17.04;44.04;100676.81;4977901;28;1069;-47
2023/12/13 04:14:04;;;;;;;;;;;;;;;18.72;41.04;100668.91;4985492;28;1124;-45
2023/12/13 04:16:29;;;;;;;;;;;;;;;17.61;43.22;100673.84;4987157;28;1116;-50
2023/12/13 04:18:55;;;;;;;;;;;;;;;17.14;44.07;100669.63;4978064;28;1139;-53
2023/12/13 04:21:20;;;;;;;;;;;;;;;17.52;43.79;100684.59;4987907;28;1060;-51
2023/12/13 04:23:46;;;;;;;;;;;;;;;17.76;42.99;100675.69;4980379;28;1128;-52
2023/12/13 04:26:11;;;;;;;;;;;;;;;17.28;43.91;100687.19;4984598;28;1910;-55
2023/12/13 04:28:37;;;;;;;;;;;;;;;18.85;40.72;100686.69;4983453;28;1041;-54
2023/12/13 04:31:03;;;;;;;;;;;;;;;17.56;43.21;100677.44;4990318;28;1167;-53
2023/12/13 04:33:28;;;;;;;;;;;;;;;17.20;44.04;100679.53;4987831;28;1223;-53
2023/12/13 04:35:55;;;;;;;;;;;;;;;18.43;41.63;100681.56;4993331;28;1106;-49
2023/12/13 04:38:21;;;;;;;;;;;;;;;17.37;43.78;100690.97;5002885;28;1128;-54
2023/12/13 04:40:46;;;;;;;;;;;;;;;17.04;43.63;100693.31;4977586;28;2559;-53
2023/12/13 04:43:12;;;;;;;;;;;;;;;18.17;42.22;100696.63;4990004;28;1199;-56
2023/12/13 04:45:37;;;;;;;;;;;;;;;17.15;44.11;100690.53;4986430;28;1914;-56
2023/12/13 04:48:03;;;;;;;;;;;;;;;17.61;43.66;100702.16;4980847;28;1067;-55
2023/12/13 04:50:28;;;;;;;;;;;;;;;17.69;43.26;100702.69;4982794;28;949;-54
2023/12/13 04:52:54;;;;;;;;;;;;;;;17.66;43.45;100709.56;4978294;28;1191;-52
2023/12/13 04:55:19;;;;;;;;;;;;;;;18.97;40.40;100703.66;4984443;28;1064;-52
2023/12/13 04:57:45;;;;;;;;;;;;;;;17.55;43.12;100696.97;4982441;28;1183;-54
2023/12/13 05:00:11;;;;;;;;;;;;;;;18.26;42.07;100694.94;4984553;28;1036;-46
2023/12/13 05:02:39;;;;;;;;;;;;;;;18.16;41.96;100695.81;4982579;28;1020;-53
2023/12/13 05:05:04;;;;;;;;;;;;;;;17.31;43.67;100696.81;4985061;28;1902;-48
2023/12/13 05:07:32;;;;;;;;;;;;;;;17.70;43.39;100693.34;4996100;28;1015;-49
2023/12/13 05:09:58;;;;;;;;;;;;;;;18.07;42.38;100703.84;4996141;28;2700;-52
2023/12/13 05:12:23;;;;;;;;;;;;;;;17.26;43.68;100700.38;4983574;28;1052;-48
2023/12/13 05:14:49;;;;;;;;;;;;;;;16.91;44.18;100711.19;4981650;28;965;-46
2023/12/13 05:17:14;;;;;;;;;;;;;;;17.91;42.70;100699.56;4978125;28;1000;-50
2023/12/13 05:19:40;;;;;;;;;;;;;;;17.10;44.30;100703.16;4996596;28;1024;-50
2023/12/13 05:22:06;;;;;;;;;;;;;;;18.39;41.86;100710.78;4982134;28;1036;-46
2023/12/13 05:24:32;;;;;;;;;;;;;;;17.69;43.17;100719.19;4984606;28;1110;-49
2023/12/13 05:26:58;;;;;;;;;;;;;;;17.78;43.05;100712.81;4993957;28;1910;-45
2023/12/13 05:29:23;;;;;;;;;;;;;;;17.76;42.81;100725.19;4976876;28;1005;-52
2023/12/13 05:31:49;;;;;;;;;;;;;;;17.18;44.39;100717.44;4977972;28;1099;-52
2023/12/13 05:34:14;;;;;;;;;;;;;;;16.80;44.97;100719.69;4989686;28;1215;-51
2023/12/13 05:36:40;;;;;;;;;;;;;;;16.63;45.39;100720.78;4978884;28;1168;-53
2023/12/13 05:39:07;;;;;;;;;;;;;;;16.38;46.08;100716.97;4988044;28;1841;-51
2023/12/13 05:41:32;;;;;;;;;;;;;;;16.18;46.54;100725.16;4991684;28;1117;-52
2023/12/13 05:43:58;;;;;;;;;;;;;;;16.05;46.46;100721.84;4995887;28;1314;-51
2023/12/13 05:46:23;;;;;;;;;;;;;;;15.92;47.03;100714.13;4995525;28;1910;-51
2023/12/13 05:48:49;;;;;;;;;;;;;;;15.78;47.16;100704.75;4988650;28;1012;-52
2023/12/13 05:51:14;;;;;;;;;;;;;;;15.62;47.67;100701.94;4996776;28;852;-53
2023/12/13 05:53:40;;;;;;;;;;;;;;;15.54;47.79;100700.56;4988393;28;1049;-51
2023/12/13 05:56:06;;;;;;;;;;;;;;;15.88;47.17;100696.59;4986673;28;1227;-52
2023/12/13 05:58:31;;;;;;;;;;;;;;;17.19;43.88;100692.41;5006459;28;1135;-49
2023/12/13 06:00:57;;;;;;;;;;;;;;;16.29;45.61;100693.06;4995506;28;1123;-50
2023/12/13 06:03:23;;;;;;;;;;;;;;;15.85;46.96;100689.72;4987691;28;2313;-53
2023/12/13 06:05:49;;;;;;;;;;;;;;;15.54;47.46;100681.38;4993414;28;1910;-50
2023/12/13 06:08:14;;;;;;;;;;;;;;;15.89;46.87;100682.59;4989243;28;1065;-51
2023/12/13 06:10:40;;;;;;;;;;;;;;;17.35;43.17;100665.72;4997056;28;1083;-50
2023/12/13 06:13:05;;;;;;;;;;;;;;;16.46;45.30;100665.34;4980909;28;1088;-50
2023/12/13 06:15:32;;;;;;;;;;;;;;;15.96;46.55;100673.28;4996250;28;873;-54
2023/12/13 06:17:57;;;;;;;;;;;;;;;15.69;47.27;100697.03;4998659;28;1154;-51
2023/12/13 06:20:23;;;;;;;;;;;;;;;15.73;46.93;100698.13;4997583;28;965;-49
2023/12/13 06:22:48;;;;;;;;;;;;;;;17.28;43.68;100696.25;4999512;28;1057;-52
2023/12/13 06:25:14;;;;;;;;;;;;;;;16.63;44.70;100687.84;4986071;28;1910;-51
2023/12/13 06:27:39;;;;;;;;;;;;;;;16.04;46.27;100686.47;4990921;28;896;-50
2023/12/13 06:30:05;;;;;;;;;;;;;;;15.73;47.02;100692.66;4986377;28;1180;-49
2023/12/13 06:32:31;;;;;;;;;;;;;;;16.90;44.52;100697.72;4999350;28;1056;-53
2023/12/13 06:34:56;;;;;;;;;;;;;;;16.91;44.18;100699.38;4998959;28;1055;-52
2023/12/13 06:37:22;;;;;;;;;;;;;;;16.18;45.87;100708.69;4991642;28;1139;-52
2023/12/13 06:39:47;;;;;;;;;;;;;;;15.83;46.81;100702.03;5011422;28;1786;-52
2023/12/13 06:42:13;;;;;;;;;;;;;;;16.95;44.30;100683.97;4998642;28;1457;-51
2023/12/13 06:44:39;;;;;;;;;;;;;;;16.75;44.55;100674.66;4997826;28;1909;-51
2023/12/13 06:47:05;;;;;;;;;;;;;;;15.99;46.23;100667.25;4991973;28;1179;-53
2023/12/13 06:49:34;;;;;;;;;;;;;;;15.80;46.63;100669.69;4993125;28;1146;-52
2023/12/13 06:52:00;;;;;;;;;;;;;;;16.60;45.05;100661.75;4988330;28;881;-51
2023/12/13 06:54:25;;;;;;;;;;;;;;;17.24;43.21;100658.63;4998982;28;1103;-48
2023/12/13 06:56:51;;;;;;;;;;;;;;;16.37;45.48;100662.34;4990116;28;1156;-48
2023/12/13 06:59:16;;;;;;;;;;;;;;;15.90;46.45;100648.59;4993315;28;1227;-50
2023/12/13 07:01:42;;;;;;;;;;;;;;;16.47;45.51;100640.38;4998459;28;1098;-51
2023/12/13 07:04:07;;;;;;;;;;;;;;;17.05;43.54;100640.00;4985174;28;948;-53
2023/12/13 07:06:33;;;;;;;;;;;;;;;16.24;45.59;100642.59;4990764;28;1909;-53
2023/12/13 07:08:59;;;;;;;;;;;;;;;15.87;46.68;100653.81;4993628;28;1148;-51
2023/12/13 07:11:24;;;;;;;;;;;;;;;15.65;46.95;100671.25;4990989;28;1020;-50
2023/12/13 07:13:50;;;;;;;;;;;;;;;16.94;44.21;100676.84;4992335;28;1199;-47
2023/12/13 07:16:16;;;;;;;;;;;;;;;16.73;44.39;100692.50;4989409;28;928;-47
2023/12/13 07:18:41;;;;;;;;;;;;;;;16.06;46.07;100695.22;4993379;28;1115;-52
2023/12/13 07:21:07;;;;;;;;;;;;;;;15.86;46.67;100679.56;4990828;28;1187;-52
2023/12/13 07:23:35;;;;;;;;;;;;;;;17.39;43.08;100665.97;4992671;28;1068;-52
2023/12/13 07:26:01;;;;;;;;;;;;;;;16.65;44.63;100647.22;4997466;28;1902;-55
2023/12/13 07:28:27;;;;;;;;;;;;;;;16.01;46.09;100638.44;4983249;28;937;-53
2023/12/13 07:30:52;;;;;;;;;;;;;;;15.71;46.85;100640.03;4978902;28;1049;-54
2023/12/13 07:33:18;;;;;;;;;;;;;;;16.39;45.52;100644.47;4979981;28;1046;-54
2023/12/13 07:35:47;;;;;;;;;;;;;;;17.30;43.18;100652.00;4990414;28;1147;-54
2023/12/13 07:38:12;;;;;;;;;;;;;;;16.23;45.53;100648.34;4978517;28;1131;-51
2023/12/13 07:40:38;;;;;;;;;;;;;;;15.88;46.41;100652.72;4978676;28;1029;-50
2023/12/13 07:43:03;;;;;;;;;;;;;;;17.05;43.87;100652.91;4991184;28;1151;-52
2023/12/13 07:45:29;;;;;;;;;;;;;;;16.93;44.13;100662.28;4978920;28;1966;-53
2023/12/13 07:47:54;;;;;;;;;;;;;;;16.16;45.71;100658.75;4978772;28;1066;-51
2023/12/13 07:50:20;;;;;;;;;;;;;;;15.93;46.50;100658.19;4995673;28;1374;-46
2023/12/13 07:52:45;;;;;;;;;;;;;;;15.66;46.99;100650.97;4971579;28;1044;-48
2023/12/13 07:55:12;;;;;;;;;;;;;;;17.19;43.70;100651.19;4961549;28;1309;-52
2023/12/13 07:57:38;;;;;;;;;;;;;;;17.18;43.52;100643.25;4977109;28;1134;-53
2023/12/13 08:00:04;;;;;;;;;;;;;;;16.37;45.55;100640.41;4969186;28;1301;-47
2023/12/13 08:02:38;;;;;;;;;;;;;;;15.92;46.35;100629.09;4989805;28;1044;-50
2023/12/13 08:05:04;;;;;;;;;;;;;;;16.43;45.47;100633.78;4972400;28;1907;-48
2023/12/13 08:07:30;;;;;;;;;;;;;;;17.44;42.83;100636.53;4997174;28;1168;-49
2023/12/13 08:09:59;;;;;;;;;;;;;;;16.54;44.95;100640.91;4999698;28;1171;-49
2023/12/13 08:12:25;;;;;;;;;;;;;;;15.92;46.50;100631.84;4984781;28;1087;-52
2023/12/13 08:14:50;;;;;;;;;;;;;;;15.71;47.31;100629.06;4986006;28;1126;-52
2023/12/13 08:17:17;;;;;;;;;;;;;;;17.23;43.58;100624.00;4985729;28;1053;-50
2023/12/13 08:19:43;;;;;;;;;;;;;;;16.65;44.92;100625.25;4972966;28;1148;-49
2023/12/13 08:22:09;;;;;;;;;;;;;;;16.10;46.07;100619.53;4985634;28;1202;-49
2023/12/13 08:24:34;;;;;;;;;;;;;;;15.92;46.61;100604.44;4977996;28;1115;-46
2023/12/13 08:27:00;;;;;;;;;;;;;;;17.38;43.33;100612.94;4981441;28;1914;-53
2023/12/13 08:29:25;;;;;;;;;;;;;;;16.70;44.65;100624.41;4992042;28;1039;-48
2023/12/13 08:31:51;;;;;;;;;;;;;;;16.20;46.02;100621.44;4977976;28;1064;-48
2023/12/13 08:34:16;;;;;;;;;;;;;;;15.87;46.70;100616.22;4977597;28;1060;-49
2023/12/13 08:36:42;;;;;;;;;;;;;;;17.04;44.09;100626.53;4982217;28;1167;-50
2023/12/13 08:39:09;;;;;;;;;;;;;;;16.98;43.96;100631.22;4977695;28;1160;-50
2023/12/13 08:41:35;;;;;;;;;;;;;;;16.24;45.97;100623.38;4977844;28;1009;-49
2023/12/13 08:44:00;;;;;;;;;;;;;;;16.00;46.51;100620.34;4977448;28;1045;-49
2023/12/13 08:46:26;;;;;;;;;;;;;;;15.86;47.00;100603.59;4977303;28;1973;-47
2023/12/13 08:48:51;;;;;;;;;;;;;;;17.44;43.34;100594.47;4977894;28;1160;-49
2023/12/13 08:51:17;;;;;;;;;;;;;;;16.83;44.59;100599.13;4977617;28;1227;-52
2023/12/13 08:53:42;;;;;;;;;;;;;;;16.21;46.11;100604.72;4977363;28;1063;-51
2023/12/13 08:56:09;;;;;;;;;;;;;;;15.94;46.60;100607.75;4990340;28;1099;-55
2023/12/13 08:58:35;;;;;;;;;;;;;;;16.42;45.58;100593.72;4977277;28;1065;-48
2023/12/13 09:01:01;;;;;;;;;;;;;;;17.71;42.51;100577.56;4979966;28;1109;-49
2023/12/13 09:03:27;;;;;;;;;;;;;;;16.80;44.49;100574.13;4990403;28;1116;-57
2023/12/13 09:05:53;;;;;;;;;;;;;;;16.24;45.86;100581.38;4989120;28;1918;-50
2023/12/13 09:08:18;;;;;;;;;;;;;;;15.98;46.65;100564.97;4975584;28;1211;-55
2023/12/13 09:10:44;;;;;;;;;;;;;;;15.78;46.99;100554.78;4979713;28;1222;-51
2023/12/13 09:13:09;;;;;;;;;;;;;;;17.28;43.81;100544.28;4967221;28;1191;-52
2023/12/13 09:15:35;;;;;;;;;;;;;;;16.82;44.63;100545.31;4969389;28;1210;-49
2023/12/13 09:18:00;;;;;;;;;;;;;;;16.11;46.45;100554.53;4990558;28;1143;-55
2023/12/13 09:20:26;;;;;;;;;;;;;;;15.92;46.77;100563.28;4987779;28;1279;-53
2023/12/13 09:22:51;;;;;;;;;;;;;;;16.98;44.65;100561.75;4992275;28;1373;-48
2023/12/13 09:25:17;;;;;;;;;;;;;;;16.98;44.26;100568.03;4993902;28;1971;-53
2023/12/13 09:27:43;;;;;;;;;;;;;;;16.24;46.05;100570.41;4972446;28;1079;-51
2023/12/13 09:30:13;;;;;;;;;;;;;;;15.90;46.84;100582.75;4989514;28;1299;-55
2023/12/13 09:32:41;;;;;;;;;;;;;;;16.77;45.10;100579.09;4980817;28;1072;-56
2023/12/13 09:35:07;;;;;;;;;;;;;;;16.92;44.31;100570.00;4981196;28;1119;-54
2023/12/13 09:37:32;;;;;;;;;;;;;;;16.19;46.23;100574.00;4980589;28;1093;-51
2023/12/13 09:40:01;;;;;;;;;;;;;;;15.83;47.27;100570.44;4993407;28;1049;-54
2023/12/13 09:42:27;;;;;;;;;;;;;;;16.51;45.81;100574.75;5005421;28;1141;-54
2023/12/13 09:44:52;;;;;;;;;;;;;;;17.17;43.81;100560.00;4991134;28;1906;-51
2023/12/13 09:47:18;;;;;;;;;;;;;;;16.30;46.01;100552.88;4994062;28;1270;-57
2023/12/13 09:49:44;;;;;;;;;;;;;;;15.90;47.00;100549.06;4982225;28;1239;-53
2023/12/13 09:52:09;;;;;;;;;;;;;;;15.69;47.57;100543.53;4980414;28;1132;-53
2023/12/13 09:54:39;;;;;;;;;;;;;;;16.52;45.78;100537.97;4981183;28;1080;-53
2023/12/13 09:57:05;;;;;;;;;;;;;;;17.26;43.88;100525.34;4991920;28;1049;-54
2023/12/13 09:59:30;;;;;;;;;;;;;;;16.36;45.83;100518.81;4979484;28;1128;-48
2023/12/13 10:01:56;;;;;;;;;;;;;;;15.93;46.84;100507.38;4989159;28;1034;-54
2023/12/13 10:04:21;;;;;;;;;;;;;;;16.24;46.23;100491.69;4961985;28;1097;-55
2023/12/13 10:06:47;;;;;;;;;;;;;;;17.49;43.25;100486.41;4972126;28;1914;-48
2023/12/13 10:09:14;;;;;;;;;;;;;;;16.54;45.26;100469.91;4987211;28;1064;-55
2023/12/13 10:11:39;;;;;;;;;;;;;;;16.08;46.50;100468.13;4999541;28;1115;-56
2023/12/13 10:14:05;;;;;;;;;;;;;;;15.80;47.41;100458.59;4983432;28;1176;-54
2023/12/13 10:16:33;;;;;;;;;;;;;;;15.97;47.08;100458.28;4974257;28;1223;-52
2023/12/13 10:18:58;;;;;;;;;;;;;;;17.40;43.54;100456.81;4985621;28;1228;-57
2023/12/13 10:21:24;;;;;;;;;;;;;;;16.51;45.61;100451.25;4978944;28;1052;-57
2023/12/13 10:23:49;;;;;;;;;;;;;;;16.08;46.55;100443.44;4980657;28;1148;-50
2023/12/13 10:26:15;;;;;;;;;;;;;;;15.78;47.28;100447.03;5007370;28;1981;-49
2023/12/13 10:28:40;;;;;;;;;;;;;;;16.71;45.44;100450.34;4979514;28;873;-51
2023/12/13 10:31:06;;;;;;;;;;;;;;;17.18;44.07;100451.75;4994632;28;1235;-52
2023/12/13 10:33:31;;;;;;;;;;;;;;;16.23;46.10;100442.59;4985792;28;1136;-54
2023/12/13 10:35:58;;;;;;;;;;;;;;;15.96;47.07;100442.94;4981167;28;1337;-53
2023/12/13 10:38:24;;;;;;;;;;;;;;;15.96;47.00;100438.25;4996155;28;1381;-52
2023/12/13 10:40:49;;;;;;;;;;;;;;;17.44;43.65;100435.06;4980480;28;898;-49
2023/12/13 10:43:15;;;;;;;;;;;;;;;16.82;44.94;100431.91;4979647;28;1230;-50
2023/12/13 10:45:43;;;;;;;;;;;;;;;16.22;46.29;100428.03;4994730;28;1918;-54
2023/12/13 10:48:09;;;;;;;;;;;;;;;15.88;47.09;100420.47;4979196;28;1065;-54
2023/12/13 10:50:35;;;;;;;;;;;;;;;15.82;47.39;100421.56;4994825;28;1127;-50
2023/12/13 10:53:01;;;;;;;;;;;;;;;17.33;43.80;100423.31;4979693;28;1191;-50
2023/12/13 10:55:26;;;;;;;;;;;;;;;16.89;44.89;100421.44;4979851;28;1137;-49
2023/12/13 10:57:52;;;;;;;;;;;;;;;16.16;46.42;100420.94;4994711;28;1033;-51
2023/12/13 11:00:17;;;;;;;;;;;;;;;15.86;47.44;100411.66;4979416;28;1096;-51
2023/12/13 11:02:52;;;;;;;;;;;;;;;16.22;46.57;100414.31;4979096;28;1068;-54
2023/12/13 11:05:17;;;;;;;;;;;;;;;17.56;43.11;100419.00;4993989;28;1977;-54
2023/12/13 11:07:46;;;;;;;;;;;;;;;16.59;45.35;100413.06;4994781;28;1083;-55
2023/12/13 11:10:13;;;;;;;;;;;;;;;16.07;46.89;100406.97;4978700;28;1021;-53
2023/12/13 11:12:51;;;;;;;;;;;;;;;15.85;47.33;100384.53;4979303;28;1200;-54
2023/12/13 11:15:17;;;;;;;;;;;;;;;15.91;47.41;100387.00;4979529;28;1048;-54
2023/12/13 11:17:49;;;;;;;;;;;;;;;17.42;43.93;100383.13;4978861;28;887;-53
2023/12/13 11:20:14;;;;;;;;;;;;;;;16.70;45.15;100389.09;4984512;28;1081;-52
2023/12/13 11:22:48;;;;;;;;;;;;;;;16.04;46.75;100371.88;4967355;28;1377;-57
2023/12/13 11:25:14;;;;;;;;;;;;;;;15.86;47.40;100383.44;4979346;28;1923;-50
2023/12/13 11:27:56;;;;;;;;;;;;;;;16.16;46.78;100390.75;4979442;28;1084;-45
2023/12/13 11:30:22;;;;;;;;;;;;;;;17.54;43.62;100379.16;4976191;28;1019;-48
2023/12/13 11:32:47;;;;;;;;;;;;;;;16.48;45.91;100380.47;4983120;28;1075;-47
2023/12/13 11:35:16;;;;;;;;;;;;;;;16.03;46.99;100372.16;4981022;28;1111;-47
2023/12/13 11:37:44;;;;;;;;;;;;;;;15.89;47.27;100369.16;4988167;28;1144;-49
2023/12/13 11:40:10;;;;;;;;;;;;;;;17.13;44.74;100363.88;4977095;28;1559;-49
2023/12/13 11:42:35;;;;;;;;;;;;;;;16.92;45.01;100354.97;4978208;28;1195;-47
2023/12/13 11:45:00;;;;;;;;;;;;;;;16.24;46.41;100372.88;4977793;28;1974;-49
2023/12/13 11:47:26;;;;;;;;;;;;;;;15.87;47.35;100376.88;4993576;28;1071;-50
2023/12/13 11:49:51;;;;;;;;;;;;;;;15.88;47.73;100362.06;4978290;28;1074;-48
2023/12/13 11:52:17;;;;;;;;;;;;;;;17.38;44.21;100362.81;4977946;28;1144;-46
2023/12/13 11:54:43;;;;;;;;;;;;;;;16.56;45.85;100355.16;4986782;28;1378;-49
2023/12/13 11:57:15;;;;;;;;;;;;;;;15.97;47.26;100351.34;4978255;28;1136;-45
2023/12/13 11:59:40;;;;;;;;;;;;;;;15.71;48.18;100338.50;4991409;28;1176;-51
2023/12/13 12:02:07;;;;;;;;;;;;;;;17.07;44.90;100352.09;4977937;28;1021;-47
2023/12/13 12:04:32;;;;;;;;;;;;;;;17.06;44.52;100342.22;4990678;28;1155;-50
2023/12/13 12:06:58;;;;;;;;;;;;;;;16.26;46.77;100351.50;4978247;28;1918;-53
2023/12/13 12:09:24;;;;;;;;;;;;;;;15.89;47.54;100328.88;4978220;28;1117;-53
2023/12/13 12:11:53;;;;;;;;;;;;;;;15.66;48.05;100329.47;4978036;28;1167;-53
2023/12/13 12:14:18;;;;;;;;;;;;;;;16.41;46.61;100326.72;4978302;28;1028;-50
2023/12/13 12:16:44;;;;;;;;;;;;;;;17.33;44.19;100318.88;4978244;28;1036;-51
2023/12/13 12:19:10;;;;;;;;;;;;;;;16.30;46.58;100313.31;4983921;28;1014;-56
2023/12/13 12:21:35;;;;;;;;;;;;;;;15.97;47.33;100312.94;4984666;28;1182;-50
2023/12/13 12:24:01;;;;;;;;;;;;;;;15.86;48.01;100321.19;5012309;28;1164;-56
2023/12/13 12:26:28;;;;;;;;;;;;;;;17.33;44.47;100307.91;4985014;28;1910;-51
2023/12/13 12:28:53;;;;;;;;;;;;;;;16.72;45.58;100295.50;4977604;28;1072;-55
2023/12/13 12:31:19;;;;;;;;;;;;;;;16.08;47.15;100293.41;4977547;28;1151;-55
2023/12/13 12:33:57;;;;;;;;;;;;;;;15.86;47.74;100284.75;4977796;28;1105;-53
2023/12/13 12:36:22;;;;;;;;;;;;;;;16.42;46.66;100284.47;4977740;28;1163;-54
2023/12/13 12:38:48;;;;;;;;;;;;;;;17.48;43.91;100295.13;4977575;28;1152;-52
2023/12/13 12:41:17;;;;;;;;;;;;;;;16.53;46.36;100296.16;4989774;28;1100;-54